JAL526 RJCC-RJTT
Flight info
| Callsign | JAL526 |
|---|---|
| Flight time | 1h 26m |
| Altitude | 34000 |
| Route | TOBBY Y10 GODIN |
| Aircraft | A359/H-SDE2E3GHIJ3J4J5LM1ORWXY/LB1D1 |
Departure
| Time | 2026-02-17 11:43 |
|---|---|
| Airport | New Chitose Airport (RJCC) |
Arrival
| Time | 2026-02-17 13:09 |
|---|---|
| Airport | Tokyo Haneda International Airport (RJTT) |
| Time | Latitude | Longitude | Altitude | Speed | Heading |
|---|---|---|---|---|---|
| 2026-02-17 11:18 | 42.78524 | 141.68169 | 92 ft | 0 kts | 315° |
| 2026-02-17 11:31 | 42.78515 | 141.68181 | 85 ft | 3 kts | 311° |
| 2026-02-17 11:31 | 42.78502 | 141.68202 | 85 ft | 3 kts | 310° |
| 2026-02-17 11:31 | 42.78490 | 141.68221 | 90 ft | 3 kts | 317° |
| 2026-02-17 11:31 | 42.78478 | 141.68235 | 85 ft | 3 kts | 343° |
| 2026-02-17 11:32 | 42.78463 | 141.68239 | 85 ft | 3 kts | 13° |
| 2026-02-17 11:32 | 42.78448 | 141.68231 | 85 ft | 3 kts | 39° |
| 2026-02-17 11:32 | 42.78436 | 141.68216 | 85 ft | 2 kts | 57° |
| 2026-02-17 11:32 | 42.78430 | 141.68202 | 85 ft | 3 kts | 56° |
| 2026-02-17 11:33 | 42.78418 | 141.68180 | 85 ft | 3 kts | 49° |
| 2026-02-17 11:33 | 42.78404 | 141.68160 | 85 ft | 3 kts | 47° |
| 2026-02-17 11:33 | 42.78391 | 141.68140 | 90 ft | 2 kts | 55° |
| 2026-02-17 11:33 | 42.78387 | 141.68133 | 85 ft | 0 kts | 58° |
| 2026-02-17 11:39 | 42.78389 | 141.68136 | 85 ft | 2 kts | 57° |
| 2026-02-17 11:39 | 42.78415 | 141.68186 | 88 ft | 11 kts | 52° |
| 2026-02-17 11:39 | 42.78471 | 141.68278 | 90 ft | 14 kts | 50° |
| 2026-02-17 11:40 | 42.78551 | 141.68368 | 89 ft | 16 kts | 28° |
| 2026-02-17 11:40 | 42.78663 | 141.68411 | 87 ft | 17 kts | 6° |
| 2026-02-17 11:40 | 42.78768 | 141.68432 | 87 ft | 9 kts | 28° |
| 2026-02-17 11:40 | 42.78793 | 141.68496 | 89 ft | 8 kts | 79° |
| 2026-02-17 11:41 | 42.78805 | 141.68589 | 88 ft | 12 kts | 80° |
| 2026-02-17 11:41 | 42.78820 | 141.68702 | 85 ft | 12 kts | 82° |
| 2026-02-17 11:41 | 42.78795 | 141.68805 | 85 ft | 11 kts | 144° |
| 2026-02-17 11:41 | 42.78731 | 141.68830 | 80 ft | 6 kts | 172° |
| 2026-02-17 11:42 | 42.78715 | 141.68833 | 80 ft | 2 kts | 172° |
| 2026-02-17 11:42 | 42.78697 | 141.68836 | 80 ft | 4 kts | 172° |
| 2026-02-17 11:42 | 42.78623 | 141.68851 | 84 ft | 19 kts | 172° |
| 2026-02-17 11:43 | 42.77790 | 141.68999 | 74 ft | 136 kts | 172° |
| 2026-02-17 11:43 | 42.76620 | 141.69216 | 415 ft | 188 kts | 172° |
| 2026-02-17 11:43 | 42.75296 | 141.69462 | 1449 ft | 199 kts | 172° |
| 2026-02-17 11:43 | 42.73838 | 141.69736 | 2292 ft | 221 kts | 171° |
| 2026-02-17 11:44 | 42.72273 | 141.70068 | 2908 ft | 233 kts | 171° |
| 2026-02-17 11:44 | 42.70682 | 141.70416 | 3802 ft | 231 kts | 172° |
| 2026-02-17 11:44 | 42.69071 | 141.70761 | 4584 ft | 236 kts | 174° |
| 2026-02-17 11:44 | 42.67429 | 141.71099 | 5269 ft | 244 kts | 175° |
| 2026-02-17 11:45 | 42.65728 | 141.71445 | 6019 ft | 248 kts | 176° |
| 2026-02-17 11:45 | 42.64014 | 141.71791 | 6831 ft | 249 kts | 176° |
| 2026-02-17 11:45 | 42.63251 | 141.71942 | 7176 ft | 250 kts | 177° |
| 2026-02-17 11:45 | 42.62142 | 141.72098 | 7658 ft | 251 kts | 181° |
| 2026-02-17 11:46 | 42.60476 | 141.72209 | 8377 ft | 252 kts | 182° |
| 2026-02-17 11:46 | 42.58838 | 141.72295 | 9020 ft | 257 kts | 182° |
| 2026-02-17 11:46 | 42.57031 | 141.72393 | 9713 ft | 261 kts | 181° |
| 2026-02-17 11:47 | 42.53362 | 141.72596 | 10867 ft | 266 kts | 182° |
| 2026-02-17 11:47 | 42.51458 | 141.72703 | 11000 ft | 267 kts | 182° |
| 2026-02-17 11:47 | 42.50111 | 141.72779 | 11006 ft | 267 kts | 182° |
| 2026-02-17 11:47 | 42.48175 | 141.72887 | 11003 ft | 268 kts | 182° |
| 2026-02-17 11:48 | 42.46298 | 141.72993 | 11007 ft | 275 kts | 181° |
| 2026-02-17 11:48 | 42.44349 | 141.73100 | 11004 ft | 282 kts | 181° |
| 2026-02-17 11:48 | 42.42349 | 141.73208 | 11001 ft | 284 kts | 182° |
| 2026-02-17 11:48 | 42.40374 | 141.73315 | 11001 ft | 284 kts | 181° |
| 2026-02-17 11:49 | 42.38399 | 141.73429 | 11001 ft | 284 kts | 181° |
| 2026-02-17 11:49 | 42.36422 | 141.73542 | 11000 ft | 284 kts | 181° |
| 2026-02-17 11:49 | 42.34450 | 141.73654 | 11000 ft | 284 kts | 181° |
| 2026-02-17 11:49 | 42.32445 | 141.73768 | 11000 ft | 284 kts | 181° |
| 2026-02-17 11:50 | 42.30458 | 141.73880 | 11005 ft | 290 kts | 181° |
| 2026-02-17 11:50 | 42.28345 | 141.73980 | 11011 ft | 318 kts | 182° |
| 2026-02-17 11:50 | 42.26050 | 141.74077 | 11004 ft | 338 kts | 182° |
| 2026-02-17 11:51 | 42.21251 | 141.74344 | 11602 ft | 349 kts | 181° |
| 2026-02-17 11:51 | 42.18832 | 141.74486 | 12348 ft | 348 kts | 181° |
| 2026-02-17 11:51 | 42.16405 | 141.74624 | 13003 ft | 350 kts | 181° |
| 2026-02-17 11:51 | 42.13972 | 141.74760 | 13616 ft | 352 kts | 181° |
| 2026-02-17 11:52 | 42.11491 | 141.74899 | 14203 ft | 355 kts | 181° |
| 2026-02-17 11:52 | 42.09028 | 141.75037 | 14805 ft | 358 kts | 181° |
| 2026-02-17 11:52 | 42.06536 | 141.75182 | 15382 ft | 360 kts | 181° |
| 2026-02-17 11:52 | 42.04021 | 141.75323 | 15952 ft | 363 kts | 181° |
| 2026-02-17 11:53 | 42.01496 | 141.75461 | 16523 ft | 365 kts | 181° |
| 2026-02-17 11:53 | 41.98944 | 141.75601 | 17080 ft | 368 kts | 181° |
| 2026-02-17 11:53 | 41.96336 | 141.75746 | 17629 ft | 371 kts | 181° |
| 2026-02-17 11:53 | 41.93790 | 141.75888 | 18170 ft | 373 kts | 181° |
| 2026-02-17 11:54 | 41.91272 | 141.76031 | 18664 ft | 375 kts | 181° |
| 2026-02-17 11:54 | 41.88835 | 141.76207 | 19130 ft | 379 kts | 180° |
| 2026-02-17 11:54 | 41.86202 | 141.76305 | 19619 ft | 379 kts | 186° |
| 2026-02-17 11:55 | 41.80967 | 141.75374 | 20570 ft | 381 kts | 193° |
| 2026-02-17 11:55 | 41.78359 | 141.74711 | 21023 ft | 383 kts | 194° |
| 2026-02-17 11:55 | 41.75738 | 141.73990 | 21465 ft | 386 kts | 195° |
| 2026-02-17 11:55 | 41.73107 | 141.73244 | 21908 ft | 388 kts | 195° |
| 2026-02-17 11:56 | 41.70457 | 141.72489 | 22329 ft | 391 kts | 195° |
| 2026-02-17 11:56 | 41.67793 | 141.71742 | 22738 ft | 393 kts | 195° |
| 2026-02-17 11:56 | 41.65101 | 141.70997 | 23138 ft | 396 kts | 195° |
| 2026-02-17 11:56 | 41.62386 | 141.70263 | 23555 ft | 399 kts | 195° |
| 2026-02-17 11:57 | 41.59655 | 141.69531 | 23974 ft | 401 kts | 195° |
| 2026-02-17 11:57 | 41.56909 | 141.68797 | 24373 ft | 404 kts | 195° |
| 2026-02-17 11:57 | 41.54147 | 141.68060 | 24785 ft | 406 kts | 195° |
| 2026-02-17 11:57 | 41.51377 | 141.67323 | 25195 ft | 408 kts | 195° |
| 2026-02-17 11:58 | 41.48578 | 141.66577 | 25622 ft | 410 kts | 195° |
| 2026-02-17 11:58 | 41.45768 | 141.65825 | 26024 ft | 413 kts | 195° |
| 2026-02-17 11:58 | 41.42943 | 141.65067 | 26450 ft | 416 kts | 195° |
| 2026-02-17 11:59 | 41.37474 | 141.63598 | 27286 ft | 421 kts | 195° |
| 2026-02-17 11:59 | 41.34596 | 141.62830 | 27732 ft | 423 kts | 196° |
| 2026-02-17 11:59 | 41.31695 | 141.62058 | 28149 ft | 426 kts | 196° |
| 2026-02-17 11:59 | 41.28776 | 141.61283 | 28596 ft | 429 kts | 196° |
| 2026-02-17 12:00 | 41.25839 | 141.60506 | 29019 ft | 431 kts | 196° |
| 2026-02-17 12:00 | 41.22884 | 141.59725 | 29443 ft | 434 kts | 196° |
| 2026-02-17 12:00 | 41.19923 | 141.58939 | 29856 ft | 436 kts | 197° |
| 2026-02-17 12:00 | 41.16931 | 141.58144 | 30250 ft | 439 kts | 197° |
| 2026-02-17 12:01 | 41.13927 | 141.57347 | 30664 ft | 442 kts | 197° |
| 2026-02-17 12:01 | 41.10905 | 141.56547 | 31035 ft | 444 kts | 197° |
| 2026-02-17 12:01 | 41.07865 | 141.55749 | 31379 ft | 447 kts | 197° |
| 2026-02-17 12:01 | 41.04792 | 141.54938 | 31730 ft | 450 kts | 197° |
| 2026-02-17 12:02 | 41.01777 | 141.54141 | 32061 ft | 452 kts | 197° |
| 2026-02-17 12:02 | 40.98796 | 141.53353 | 32353 ft | 455 kts | 197° |
| 2026-02-17 12:02 | 40.95684 | 141.52534 | 32654 ft | 457 kts | 197° |
| 2026-02-17 12:03 | 40.89411 | 141.50884 | 33273 ft | 461 kts | 197° |
| 2026-02-17 12:03 | 40.86267 | 141.50059 | 33684 ft | 460 kts | 197° |
| 2026-02-17 12:03 | 40.83135 | 141.49237 | 34033 ft | 460 kts | 198° |
| 2026-02-17 12:03 | 40.79996 | 141.48417 | 34125 ft | 457 kts | 198° |
| 2026-02-17 12:04 | 40.73793 | 141.46797 | 34128 ft | 454 kts | 198° |
| 2026-02-17 12:04 | 40.67618 | 141.45177 | 34129 ft | 455 kts | 198° |
| 2026-02-17 12:05 | 40.61401 | 141.43559 | 34129 ft | 456 kts | 198° |
| 2026-02-17 12:05 | 40.55183 | 141.41943 | 34131 ft | 459 kts | 198° |
| 2026-02-17 12:06 | 40.48814 | 141.40277 | 34129 ft | 473 kts | 198° |
| 2026-02-17 12:07 | 40.39164 | 141.37785 | 34129 ft | 473 kts | 198° |
| 2026-02-17 12:07 | 40.32657 | 141.36113 | 34128 ft | 473 kts | 198° |
| 2026-02-17 12:08 | 40.26249 | 141.34458 | 34119 ft | 472 kts | 198° |
| 2026-02-17 12:08 | 40.19802 | 141.32796 | 34119 ft | 473 kts | 198° |
| 2026-02-17 12:09 | 40.13343 | 141.31140 | 34120 ft | 473 kts | 198° |
| 2026-02-17 12:09 | 40.06887 | 141.29482 | 34120 ft | 473 kts | 198° |
| 2026-02-17 12:10 | 40.00433 | 141.27829 | 34119 ft | 473 kts | 198° |
| 2026-02-17 12:10 | 39.94017 | 141.26191 | 34128 ft | 473 kts | 198° |
| 2026-02-17 12:11 | 39.84338 | 141.23722 | 34130 ft | 472 kts | 198° |
| 2026-02-17 12:11 | 39.77892 | 141.22081 | 34128 ft | 474 kts | 198° |
| 2026-02-17 12:12 | 39.71403 | 141.20434 | 34128 ft | 476 kts | 198° |
| 2026-02-17 12:12 | 39.64918 | 141.18780 | 34129 ft | 476 kts | 198° |
| 2026-02-17 12:13 | 39.58426 | 141.17148 | 34128 ft | 475 kts | 198° |
| 2026-02-17 12:13 | 39.51877 | 141.15506 | 34128 ft | 475 kts | 199° |
| 2026-02-17 12:14 | 39.45448 | 141.13887 | 34128 ft | 475 kts | 199° |
| 2026-02-17 12:15 | 39.36382 | 141.11407 | 33954 ft | 465 kts | 201° |
| 2026-02-17 12:15 | 39.33276 | 141.10440 | 34072 ft | 457 kts | 201° |
| 2026-02-17 12:15 | 39.30200 | 141.09472 | 34505 ft | 453 kts | 201° |
| 2026-02-17 12:15 | 39.27146 | 141.08513 | 35002 ft | 451 kts | 202° |
| 2026-02-17 12:16 | 39.24055 | 141.07556 | 35502 ft | 448 kts | 201° |
| 2026-02-17 12:16 | 39.21028 | 141.06632 | 35963 ft | 446 kts | 201° |
| 2026-02-17 12:16 | 39.18025 | 141.05721 | 36182 ft | 449 kts | 201° |
| 2026-02-17 12:16 | 39.14953 | 141.04795 | 36509 ft | 449 kts | 201° |
| 2026-02-17 12:17 | 39.11917 | 141.03888 | 36858 ft | 448 kts | 202° |
| 2026-02-17 12:17 | 39.08881 | 141.02979 | 37202 ft | 447 kts | 202° |
| 2026-02-17 12:17 | 39.05865 | 141.02079 | 37660 ft | 443 kts | 202° |
| 2026-02-17 12:17 | 39.02877 | 141.01196 | 38053 ft | 440 kts | 202° |
| 2026-02-17 12:18 | 38.99892 | 141.00320 | 38358 ft | 440 kts | 202° |
| 2026-02-17 12:18 | 38.96907 | 140.99445 | 38623 ft | 440 kts | 202° |
| 2026-02-17 12:18 | 38.93910 | 140.98559 | 38678 ft | 443 kts | 202° |
| 2026-02-17 12:19 | 38.87927 | 140.96778 | 38166 ft | 441 kts | 202° |
| 2026-02-17 12:19 | 38.84937 | 140.95885 | 38127 ft | 441 kts | 203° |
| 2026-02-17 12:19 | 38.78956 | 140.94074 | 38133 ft | 441 kts | 203° |
| 2026-02-17 12:20 | 38.72925 | 140.92260 | 38145 ft | 450 kts | 203° |
| 2026-02-17 12:20 | 38.66770 | 140.90422 | 38138 ft | 457 kts | 203° |
| 2026-02-17 12:21 | 38.60577 | 140.88591 | 38134 ft | 457 kts | 203° |
| 2026-02-17 12:21 | 38.54419 | 140.86779 | 38134 ft | 457 kts | 202° |
| 2026-02-17 12:22 | 38.48195 | 140.84959 | 38133 ft | 452 kts | 202° |
| 2026-02-17 12:23 | 38.40087 | 140.82616 | 38150 ft | 440 kts | 204° |
| 2026-02-17 12:23 | 38.37290 | 140.81278 | 38146 ft | 421 kts | 218° |
| 2026-02-17 12:23 | 38.35049 | 140.79100 | 38151 ft | 403 kts | 233° |
| 2026-02-17 12:23 | 38.33477 | 140.76225 | 38143 ft | 392 kts | 248° |
| 2026-02-17 12:24 | 38.32644 | 140.72956 | 38147 ft | 390 kts | 258° |
| 2026-02-17 12:24 | 38.31688 | 140.66134 | 38139 ft | 390 kts | 260° |
| 2026-02-17 12:25 | 38.30359 | 140.59472 | 38136 ft | 393 kts | 245° |
| 2026-02-17 12:25 | 38.28690 | 140.56673 | 38140 ft | 404 kts | 230° |
| 2026-02-17 12:25 | 38.26468 | 140.54442 | 38136 ft | 412 kts | 223° |
| 2026-02-17 12:26 | 38.21584 | 140.50512 | 38130 ft | 423 kts | 214° |
| 2026-02-17 12:26 | 38.18709 | 140.49398 | 38137 ft | 445 kts | 199° |
| 2026-02-17 12:26 | 38.15609 | 140.49320 | 38140 ft | 469 kts | 185° |
| 2026-02-17 12:27 | 38.09040 | 140.51602 | 38135 ft | 486 kts | 176° |
| 2026-02-17 12:27 | 38.05789 | 140.52470 | 38136 ft | 473 kts | 184° |
| 2026-02-17 12:27 | 38.02537 | 140.52787 | 38141 ft | 461 kts | 189° |
| 2026-02-17 12:27 | 37.99426 | 140.52830 | 38143 ft | 447 kts | 192° |
| 2026-02-17 12:28 | 37.93297 | 140.52566 | 38144 ft | 437 kts | 195° |
| 2026-02-17 12:28 | 37.87241 | 140.52172 | 38143 ft | 436 kts | 195° |
| 2026-02-17 12:29 | 37.84191 | 140.51979 | 37944 ft | 443 kts | 195° |
| 2026-02-17 12:29 | 37.81079 | 140.51790 | 37771 ft | 454 kts | 194° |
| 2026-02-17 12:29 | 37.77899 | 140.51623 | 37562 ft | 457 kts | 194° |
| 2026-02-17 12:29 | 37.74751 | 140.51482 | 37320 ft | 456 kts | 194° |
| 2026-02-17 12:30 | 37.71558 | 140.51353 | 37069 ft | 456 kts | 194° |
| 2026-02-17 12:30 | 37.68389 | 140.51228 | 36820 ft | 456 kts | 193° |
| 2026-02-17 12:30 | 37.65219 | 140.51099 | 36574 ft | 455 kts | 193° |
| 2026-02-17 12:31 | 37.58922 | 140.50839 | 35684 ft | 450 kts | 194° |
| 2026-02-17 12:31 | 37.55792 | 140.50709 | 35033 ft | 450 kts | 193° |
| 2026-02-17 12:31 | 37.52663 | 140.50576 | 34286 ft | 451 kts | 193° |
| 2026-02-17 12:31 | 37.50363 | 140.50477 | 33723 ft | 452 kts | 193° |
| 2026-02-17 12:32 | 37.47215 | 140.50338 | 32948 ft | 453 kts | 193° |
| 2026-02-17 12:32 | 37.44059 | 140.50203 | 32155 ft | 454 kts | 192° |
| 2026-02-17 12:32 | 37.40896 | 140.50066 | 31337 ft | 455 kts | 192° |
| 2026-02-17 12:32 | 37.37733 | 140.49924 | 30495 ft | 456 kts | 192° |
| 2026-02-17 12:33 | 37.34564 | 140.49780 | 29625 ft | 457 kts | 192° |
| 2026-02-17 12:33 | 37.31375 | 140.49643 | 28813 ft | 457 kts | 191° |
| 2026-02-17 12:33 | 37.28202 | 140.49512 | 28196 ft | 452 kts | 191° |
| 2026-02-17 12:33 | 37.25117 | 140.49156 | 27534 ft | 439 kts | 198° |
| 2026-02-17 12:34 | 37.22150 | 140.48471 | 26879 ft | 433 kts | 199° |
| 2026-02-17 12:34 | 37.19205 | 140.47697 | 26232 ft | 428 kts | 200° |
| 2026-02-17 12:34 | 37.16309 | 140.46888 | 25573 ft | 424 kts | 200° |
| 2026-02-17 12:35 | 37.10653 | 140.45254 | 24267 ft | 417 kts | 200° |
| 2026-02-17 12:35 | 37.07783 | 140.44422 | 23604 ft | 414 kts | 200° |
| 2026-02-17 12:35 | 37.04991 | 140.43615 | 22955 ft | 411 kts | 200° |
| 2026-02-17 12:35 | 37.02212 | 140.42822 | 22306 ft | 408 kts | 200° |
| 2026-02-17 12:36 | 36.99459 | 140.42041 | 21666 ft | 405 kts | 199° |
| 2026-02-17 12:36 | 36.96719 | 140.41267 | 21021 ft | 401 kts | 199° |
| 2026-02-17 12:36 | 36.94003 | 140.40501 | 20367 ft | 399 kts | 199° |
| 2026-02-17 12:36 | 36.91306 | 140.39745 | 19710 ft | 396 kts | 199° |
| 2026-02-17 12:37 | 36.88638 | 140.39000 | 19047 ft | 392 kts | 199° |
| 2026-02-17 12:37 | 36.86018 | 140.38262 | 18401 ft | 390 kts | 199° |
| 2026-02-17 12:37 | 36.83363 | 140.37515 | 17919 ft | 381 kts | 199° |
| 2026-02-17 12:37 | 36.80850 | 140.36816 | 17786 ft | 365 kts | 199° |
| 2026-02-17 12:38 | 36.78427 | 140.36146 | 17639 ft | 349 kts | 199° |
| 2026-02-17 12:38 | 36.76103 | 140.35503 | 17522 ft | 335 kts | 200° |
| 2026-02-17 12:38 | 36.73875 | 140.34877 | 17388 ft | 322 kts | 200° |
| 2026-02-17 12:39 | 36.69591 | 140.33873 | 17092 ft | 314 kts | 198° |
| 2026-02-17 12:39 | 36.67339 | 140.33396 | 16958 ft | 346 kts | 197° |
| 2026-02-17 12:39 | 36.64887 | 140.32897 | 16600 ft | 354 kts | 196° |
| 2026-02-17 12:39 | 36.62545 | 140.32466 | 16214 ft | 327 kts | 195° |
| 2026-02-17 12:40 | 36.60402 | 140.32071 | 15847 ft | 316 kts | 195° |
| 2026-02-17 12:40 | 36.58211 | 140.31653 | 15467 ft | 313 kts | 195° |
| 2026-02-17 12:40 | 36.56113 | 140.31250 | 15083 ft | 296 kts | 195° |
| 2026-02-17 12:40 | 36.54107 | 140.30861 | 14711 ft | 292 kts | 196° |
| 2026-02-17 12:41 | 36.52113 | 140.30461 | 14332 ft | 289 kts | 195° |
| 2026-02-17 12:41 | 36.50147 | 140.30067 | 13964 ft | 287 kts | 195° |
| 2026-02-17 12:41 | 36.48174 | 140.29677 | 13587 ft | 284 kts | 195° |
| 2026-02-17 12:41 | 36.46239 | 140.29295 | 13214 ft | 281 kts | 195° |
| 2026-02-17 12:42 | 36.44306 | 140.28912 | 12832 ft | 279 kts | 194° |
| 2026-02-17 12:42 | 36.43044 | 140.28663 | 12582 ft | 278 kts | 194° |
| 2026-02-17 12:42 | 36.41311 | 140.28321 | 12237 ft | 277 kts | 194° |
| 2026-02-17 12:43 | 36.37525 | 140.27568 | 11987 ft | 276 kts | 193° |
| 2026-02-17 12:43 | 36.35628 | 140.27193 | 11983 ft | 276 kts | 193° |
| 2026-02-17 12:43 | 36.33732 | 140.26820 | 11977 ft | 276 kts | 194° |
| 2026-02-17 12:43 | 36.31841 | 140.26429 | 11990 ft | 275 kts | 195° |
| 2026-02-17 12:44 | 36.29962 | 140.26030 | 11988 ft | 275 kts | 195° |
| 2026-02-17 12:44 | 36.28078 | 140.25641 | 11991 ft | 275 kts | 194° |
| 2026-02-17 12:44 | 36.26187 | 140.25258 | 11983 ft | 275 kts | 194° |
| 2026-02-17 12:44 | 36.24289 | 140.24885 | 11991 ft | 275 kts | 194° |
| 2026-02-17 12:45 | 36.22398 | 140.24517 | 11990 ft | 275 kts | 194° |
| 2026-02-17 12:45 | 36.20535 | 140.24145 | 11991 ft | 275 kts | 194° |
| 2026-02-17 12:45 | 36.18641 | 140.23770 | 11851 ft | 275 kts | 194° |
| 2026-02-17 12:45 | 36.16757 | 140.23398 | 11631 ft | 274 kts | 194° |
| 2026-02-17 12:46 | 36.14877 | 140.23024 | 11406 ft | 273 kts | 194° |
| 2026-02-17 12:46 | 36.13001 | 140.22652 | 11181 ft | 273 kts | 194° |
| 2026-02-17 12:46 | 36.11454 | 140.22346 | 11027 ft | 272 kts | 193° |
| 2026-02-17 12:47 | 36.09910 | 140.22040 | 10984 ft | 272 kts | 193° |
| 2026-02-17 12:47 | 36.09095 | 140.21879 | 10984 ft | 272 kts | 193° |
| 2026-02-17 12:47 | 36.07533 | 140.21572 | 10980 ft | 273 kts | 193° |
| 2026-02-17 12:47 | 36.05673 | 140.21207 | 10976 ft | 272 kts | 193° |
| 2026-02-17 12:48 | 36.03792 | 140.20838 | 10975 ft | 272 kts | 193° |
| 2026-02-17 12:48 | 36.01905 | 140.20542 | 10977 ft | 274 kts | 188° |
| 2026-02-17 12:48 | 36.00008 | 140.20408 | 10976 ft | 274 kts | 187° |
| 2026-02-17 12:48 | 35.98101 | 140.20209 | 10977 ft | 273 kts | 190° |
| 2026-02-17 12:49 | 35.96434 | 140.19967 | 10973 ft | 273 kts | 190° |
| 2026-02-17 12:49 | 35.94545 | 140.19709 | 10978 ft | 273 kts | 190° |
| 2026-02-17 12:49 | 35.92655 | 140.19447 | 10971 ft | 273 kts | 190° |
| 2026-02-17 12:49 | 35.90778 | 140.19182 | 10953 ft | 274 kts | 190° |
| 2026-02-17 12:50 | 35.88897 | 140.18915 | 10667 ft | 272 kts | 190° |
| 2026-02-17 12:50 | 35.87025 | 140.18648 | 10284 ft | 270 kts | 190° |
| 2026-02-17 12:50 | 35.85195 | 140.18385 | 9912 ft | 259 kts | 190° |
| 2026-02-17 12:51 | 35.82429 | 140.17982 | 9303 ft | 243 kts | 189° |
| 2026-02-17 12:51 | 35.82095 | 140.17934 | 9226 ft | 242 kts | 189° |
| 2026-02-17 12:51 | 35.81353 | 140.17827 | 9056 ft | 238 kts | 189° |
| 2026-02-17 12:51 | 35.81204 | 140.17806 | 9021 ft | 237 kts | 189° |
| 2026-02-17 12:52 | 35.79960 | 140.17625 | 8729 ft | 232 kts | 189° |
| 2026-02-17 12:52 | 35.78377 | 140.17396 | 8352 ft | 226 kts | 188° |
| 2026-02-17 12:52 | 35.76832 | 140.17172 | 8037 ft | 221 kts | 188° |
| 2026-02-17 12:52 | 35.75313 | 140.16949 | 7980 ft | 221 kts | 188° |
| 2026-02-17 12:53 | 35.73778 | 140.16725 | 7975 ft | 223 kts | 188° |
| 2026-02-17 12:53 | 35.72248 | 140.16505 | 7973 ft | 222 kts | 188° |
| 2026-02-17 12:53 | 35.70726 | 140.16286 | 7969 ft | 221 kts | 188° |
| 2026-02-17 12:53 | 35.69176 | 140.16051 | 7971 ft | 222 kts | 189° |
| 2026-02-17 12:54 | 35.67648 | 140.15811 | 7962 ft | 222 kts | 189° |
| 2026-02-17 12:54 | 35.66114 | 140.15573 | 7974 ft | 222 kts | 189° |
| 2026-02-17 12:54 | 35.64582 | 140.15343 | 7966 ft | 222 kts | 189° |
| 2026-02-17 12:55 | 35.61537 | 140.14904 | 7983 ft | 222 kts | 188° |
| 2026-02-17 12:55 | 35.59999 | 140.14684 | 7976 ft | 222 kts | 189° |
| 2026-02-17 12:55 | 35.58522 | 140.14469 | 7975 ft | 222 kts | 189° |
| 2026-02-17 12:55 | 35.57023 | 140.14249 | 7982 ft | 222 kts | 189° |
| 2026-02-17 12:56 | 35.55571 | 140.14038 | 7971 ft | 221 kts | 189° |
| 2026-02-17 12:56 | 35.54021 | 140.13822 | 7738 ft | 217 kts | 188° |
| 2026-02-17 12:56 | 35.52527 | 140.13618 | 7407 ft | 219 kts | 188° |
| 2026-02-17 12:56 | 35.51012 | 140.13409 | 7107 ft | 219 kts | 188° |
| 2026-02-17 12:57 | 35.49504 | 140.13198 | 6825 ft | 218 kts | 188° |
| 2026-02-17 12:57 | 35.47995 | 140.12977 | 6526 ft | 218 kts | 188° |
| 2026-02-17 12:57 | 35.46487 | 140.12751 | 6241 ft | 218 kts | 188° |
| 2026-02-17 12:57 | 35.45283 | 140.12573 | 6037 ft | 216 kts | 187° |
| 2026-02-17 12:58 | 35.43817 | 140.12365 | 5889 ft | 209 kts | 186° |
| 2026-02-17 12:58 | 35.42381 | 140.12168 | 5659 ft | 206 kts | 186° |
| 2026-02-17 12:58 | 35.41070 | 140.11990 | 5389 ft | 204 kts | 186° |
| 2026-02-17 12:59 | 35.38166 | 140.11600 | 4603 ft | 208 kts | 187° |
| 2026-02-17 12:59 | 35.36728 | 140.11383 | 4217 ft | 209 kts | 186° |
| 2026-02-17 12:59 | 35.35310 | 140.11170 | 3989 ft | 201 kts | 185° |
| 2026-02-17 12:59 | 35.34485 | 140.11052 | 3975 ft | 201 kts | 185° |
| 2026-02-17 13:00 | 35.33698 | 140.10941 | 3973 ft | 203 kts | 185° |
| 2026-02-17 13:00 | 35.32296 | 140.10681 | 3971 ft | 205 kts | 191° |
| 2026-02-17 13:00 | 35.30984 | 140.09992 | 3977 ft | 209 kts | 211° |
| 2026-02-17 13:00 | 35.29948 | 140.08756 | 3974 ft | 211 kts | 234° |
| 2026-02-17 13:01 | 35.29454 | 140.07118 | 3984 ft | 212 kts | 258° |
| 2026-02-17 13:01 | 35.29263 | 140.05250 | 3979 ft | 212 kts | 264° |
| 2026-02-17 13:01 | 35.29139 | 140.03457 | 3978 ft | 212 kts | 265° |
| 2026-02-17 13:01 | 35.29027 | 140.01648 | 3977 ft | 211 kts | 265° |
| 2026-02-17 13:02 | 35.29020 | 139.99846 | 3970 ft | 212 kts | 277° |
| 2026-02-17 13:02 | 35.29584 | 139.98207 | 3977 ft | 211 kts | 309° |
| 2026-02-17 13:02 | 35.30680 | 139.97037 | 3988 ft | 209 kts | 327° |
| 2026-02-17 13:03 | 35.33171 | 139.95258 | 3987 ft | 207 kts | 331° |
| 2026-02-17 13:03 | 35.34409 | 139.94386 | 3977 ft | 206 kts | 331° |
| 2026-02-17 13:03 | 35.35621 | 139.93529 | 3970 ft | 195 kts | 331° |
| 2026-02-17 13:03 | 35.36702 | 139.92764 | 3962 ft | 192 kts | 331° |
| 2026-02-17 13:04 | 35.37859 | 139.91944 | 3814 ft | 191 kts | 331° |
| 2026-02-17 13:04 | 35.38992 | 139.91139 | 3531 ft | 188 kts | 331° |
| 2026-02-17 13:04 | 35.40108 | 139.90349 | 3249 ft | 179 kts | 332° |
| 2026-02-17 13:04 | 35.41158 | 139.89607 | 2980 ft | 171 kts | 333° |
| 2026-02-17 13:05 | 35.42157 | 139.88900 | 2746 ft | 162 kts | 334° |
| 2026-02-17 13:05 | 35.43120 | 139.88219 | 2523 ft | 156 kts | 334° |
| 2026-02-17 13:05 | 35.44034 | 139.87572 | 2339 ft | 156 kts | 333° |
| 2026-02-17 13:06 | 35.45602 | 139.86460 | 1988 ft | 155 kts | 333° |
| 2026-02-17 13:06 | 35.45934 | 139.86226 | 1897 ft | 155 kts | 333° |
| 2026-02-17 13:07 | 35.48187 | 139.84624 | 1419 ft | 153 kts | 332° |
| 2026-02-17 13:07 | 35.49106 | 139.83970 | 1211 ft | 152 kts | 332° |
| 2026-02-17 13:07 | 35.49581 | 139.83633 | 1101 ft | 152 kts | 331° |
| 2026-02-17 13:07 | 35.50053 | 139.83297 | 1006 ft | 152 kts | 331° |
| 2026-02-17 13:08 | 35.50658 | 139.82867 | 862 ft | 152 kts | 332° |
| 2026-02-17 13:08 | 35.51601 | 139.82178 | 679 ft | 151 kts | 330° |
| 2026-02-17 13:08 | 35.52516 | 139.81531 | 429 ft | 152 kts | 332° |
| 2026-02-17 13:08 | 35.53432 | 139.80899 | 228 ft | 151 kts | 332° |
| 2026-02-17 13:09 | 35.54334 | 139.80255 | 57 ft | 149 kts | 330° |
| 2026-02-17 13:09 | 35.55204 | 139.79636 | 34 ft | 134 kts | 331° |
| 2026-02-17 13:09 | 35.55754 | 139.79245 | 33 ft | 47 kts | 330° |
| 2026-02-17 13:09 | 35.55976 | 139.79087 | 33 ft | 28 kts | 327° |
| 2026-02-17 13:10 | 35.56067 | 139.78993 | 32 ft | 12 kts | 314° |
| 2026-02-17 13:10 | 35.56099 | 139.78945 | 32 ft | 2 kts | 308° |
| 2026-02-17 13:10 | 35.56100 | 139.78943 | 32 ft | 0 kts | 308° |
| 2026-02-17 13:11 | 35.56104 | 139.78938 | 31 ft | 4 kts | 308° |
| 2026-02-17 13:11 | 35.56159 | 139.78783 | 28 ft | 21 kts | 257° |
| 2026-02-17 13:11 | 35.56141 | 139.78750 | 29 ft | 1 kts | 212° |
| 2026-02-17 13:11 | 35.56114 | 139.78749 | 30 ft | 0 kts | 167° |
| 2026-02-17 13:13 | 35.56109 | 139.78751 | 30 ft | 3 kts | 167° |
| 2026-02-17 13:13 | 35.56073 | 139.78767 | 31 ft | 6 kts | 158° |
| 2026-02-17 13:13 | 35.56052 | 139.78778 | 31 ft | 0 kts | 157° |
| 2026-02-17 13:16 | 35.55980 | 139.78828 | 30 ft | 20 kts | 148° |
| 2026-02-17 13:16 | 35.55867 | 139.78912 | 30 ft | 20 kts | 149° |
| 2026-02-17 13:16 | 35.55782 | 139.78974 | 32 ft | 11 kts | 151° |
| 2026-02-17 13:16 | 35.55704 | 139.79028 | 32 ft | 15 kts | 150° |
| 2026-02-17 13:17 | 35.55605 | 139.79098 | 32 ft | 19 kts | 150° |
| 2026-02-17 13:17 | 35.55481 | 139.79186 | 32 ft | 22 kts | 150° |
| 2026-02-17 13:17 | 35.55350 | 139.79278 | 33 ft | 18 kts | 150° |
| 2026-02-17 13:17 | 35.55231 | 139.79364 | 33 ft | 21 kts | 149° |
| 2026-02-17 13:18 | 35.55103 | 139.79456 | 34 ft | 22 kts | 149° |
| 2026-02-17 13:18 | 35.54970 | 139.79553 | 33 ft | 24 kts | 149° |
| 2026-02-17 13:18 | 35.54837 | 139.79649 | 32 ft | 17 kts | 150° |
| 2026-02-17 13:19 | 35.54706 | 139.79649 | 29 ft | 12 kts | 238° |
| 2026-02-17 13:19 | 35.54659 | 139.79551 | 30 ft | 15 kts | 240° |
| 2026-02-17 13:19 | 35.54603 | 139.79431 | 31 ft | 17 kts | 240° |
| 2026-02-17 13:19 | 35.54543 | 139.79304 | 37 ft | 17 kts | 240° |
| 2026-02-17 13:20 | 35.54482 | 139.79174 | 42 ft | 17 kts | 240° |
| 2026-02-17 13:20 | 35.54422 | 139.79047 | 45 ft | 18 kts | 239° |
| 2026-02-17 13:20 | 35.54351 | 139.78896 | 41 ft | 23 kts | 240° |
| 2026-02-17 13:20 | 35.54291 | 139.78770 | 36 ft | 6 kts | 240° |
| 2026-02-17 13:21 | 35.54271 | 139.78728 | 34 ft | 9 kts | 240° |
| 2026-02-17 13:21 | 35.54264 | 139.78714 | 34 ft | 0 kts | 239° |
| 2026-02-17 13:34 | 35.54264 | 139.78713 | 34 ft | 0 kts | 239° |
| 2026-02-17 13:34 | 35.54254 | 139.78693 | 33 ft | 6 kts | 239° |
| 2026-02-17 13:34 | 35.54222 | 139.78626 | 31 ft | 12 kts | 240° |
| 2026-02-17 13:35 | 35.54265 | 139.78521 | 31 ft | 7 kts | 327° |
| 2026-02-17 13:35 | 35.54309 | 139.78491 | 30 ft | 9 kts | 330° |
| 2026-02-17 13:35 | 35.54377 | 139.78443 | 30 ft | 13 kts | 330° |
| 2026-02-17 13:35 | 35.54384 | 139.78439 | 30 ft | 13 kts | 330° |
| 2026-02-17 13:36 | 35.54441 | 139.78396 | 30 ft | 0 kts | 329° |
| 2026-02-17 13:36 | 35.54468 | 139.78377 | 30 ft | 8 kts | 329° |
| 2026-02-17 13:36 | 35.54527 | 139.78335 | 30 ft | 11 kts | 329° |
| 2026-02-17 13:37 | 35.54590 | 139.78327 | 29 ft | 10 kts | 21° |
| 2026-02-17 13:37 | 35.54629 | 139.78383 | 28 ft | 6 kts | 58° |
| 2026-02-17 13:37 | 35.54651 | 139.78429 | 29 ft | 2 kts | 59° |
| 2026-02-17 13:37 | 35.54652 | 139.78429 | 29 ft | 0 kts | 59° |